Time;durP1;ratioP1;P1;durP2;ratioP2;P2;SDS_P1;SDS_P2;PMS_P1;PMS_P2;Temp;Humidity;BMP_temperature;BMP_pressure;BME280_temperature;BME280_humidity;BME280_pressure;Samples;Min_cycle;Max_cycle;Signal;HPM_P1;HPM_P2
2022/12/05 06:12:12;;;;;;;75.18;27.27;;;1.80;99.90;;;;;;7628592;19;20390;-76
2022/12/05 06:14:47;;;;;;;74.20;26.07;;;1.80;99.90;;;;;;7632227;19;20010;-77
2022/12/05 06:17:19;;;;;;;77.45;28.17;;;1.90;99.90;;;;;;7627774;19;20022;-77
2022/12/05 06:19:51;;;;;;;74.18;29.67;;;2.00;99.90;;;;;;7640991;19;20028;-76
2022/12/05 06:22:24;;;;;;;69.72;29.48;;;2.10;99.90;;;;;;7633480;19;20022;-77
2022/12/05 06:24:56;;;;;;;81.10;29.63;;;2.20;99.90;;;;;;7645061;19;20035;-76
2022/12/05 06:27:30;;;;;;;73.88;27.83;;;2.20;99.90;;;;;;7604969;19;20018;-77
2022/12/05 06:30:02;;;;;;;70.93;30.08;;;2.30;99.90;;;;;;7616796;19;20119;-77
2022/12/05 06:32:35;;;;;;;71.75;31.42;;;2.50;99.90;;;;;;7618752;19;20044;-77
2022/12/05 06:35:14;;;;;;;71.13;29.02;;;2.50;99.90;;;;;;7641442;19;20023;-77
2022/12/05 06:37:46;;;;;;;65.93;28.85;;;2.50;99.90;;;;;;7631033;19;20025;-77
2022/12/05 06:40:18;;;;;;;60.38;26.50;;;2.60;99.90;;;;;;7633749;19;20018;-77
2022/12/05 06:42:50;;;;;;;63.72;26.38;;;2.60;99.90;;;;;;7637731;19;20010;-78
2022/12/05 06:45:22;;;;;;;57.90;27.35;;;2.70;99.90;;;;;;7641803;19;20027;-78
2022/12/05 06:47:54;;;;;;;58.60;26.23;;;2.80;99.90;;;;;;7637440;19;21000;-77
2022/12/05 06:50:27;;;;;;;51.15;24.27;;;2.80;99.90;;;;;;7648417;19;20022;-77
2022/12/05 06:52:59;;;;;;;57.40;24.67;;;2.80;99.90;;;;;;7642151;19;21015;-75
2022/12/05 06:55:31;;;;;;;54.53;24.35;;;2.80;99.90;;;;;;7645362;19;20278;-76
2022/12/05 06:58:03;;;;;;;55.35;24.25;;;2.80;99.90;;;;;;7630009;19;20145;-76
2022/12/05 07:03:26;;;;;;;41.65;21.42;;;2.90;99.90;;;;;;7639545;19;20018;-76
2022/12/05 07:06:03;;;;;;;41.08;19.05;;;3.00;99.90;;;;;;7638530;19;20372;-76
2022/12/05 07:08:35;;;;;;;44.47;20.08;;;3.30;99.90;;;;;;7630831;19;20014;-76
2022/12/05 07:11:08;;;;;;;43.85;20.20;;;3.50;99.90;;;;;;7633671;19;20043;-76
2022/12/05 07:13:40;;;;;;;41.17;19.20;;;3.30;99.90;;;;;;7638574;19;20380;-76
2022/12/05 07:16:12;;;;;;;47.42;21.65;;;3.20;99.90;;;;;;7644488;19;24525;-76
2022/12/05 07:18:45;;;;;;;53.47;23.33;;;3.20;99.90;;;;;;7643408;19;20052;-76
2022/12/05 07:21:19;;;;;;;53.38;22.10;;;3.20;99.90;;;;;;7638775;19;20090;-75
2022/12/05 07:23:51;;;;;;;48.10;22.35;;;3.20;99.90;;;;;;7610750;19;20018;-76
2022/12/05 07:26:23;;;;;;;52.55;22.85;;;3.10;99.90;;;;;;7605014;19;20018;-76
2022/12/05 07:28:56;;;;;;;53.20;22.75;;;3.20;99.90;;;;;;7613598;19;20018;-75
2022/12/05 07:31:28;;;;;;;49.93;22.20;;;3.10;99.90;;;;;;7608276;19;20017;-75
2022/12/05 07:34:01;;;;;;;61.65;23.85;;;3.20;99.90;;;;;;7613677;19;20022;-75
2022/12/05 07:36:33;;;;;;;54.75;23.10;;;3.10;99.90;;;;;;7609529;19;20629;-76
2022/12/05 07:39:06;;;;;;;55.22;23.58;;;3.10;99.90;;;;;;7616440;19;20989;-75
2022/12/05 07:41:38;;;;;;;59.80;25.83;;;3.20;99.90;;;;;;7611764;19;20850;-75
2022/12/05 07:44:12;;;;;;;48.88;22.60;;;3.20;99.90;;;;;;7613263;19;20021;-75
2022/12/05 07:46:44;;;;;;;51.28;22.88;;;3.10;99.90;;;;;;7598591;19;20056;-75
2022/12/05 07:49:17;;;;;;;55.72;24.38;;;3.10;99.90;;;;;;7608391;19;20515;-75
2022/12/05 07:51:49;;;;;;;55.47;24.50;;;3.20;99.90;;;;;;7608306;19;20022;-75
2022/12/05 07:54:21;;;;;;;58.20;24.05;;;3.20;99.90;;;;;;7605240;19;20019;-75
2022/12/05 07:56:54;;;;;;;60.17;25.20;;;3.20;99.90;;;;;;7611980;19;20015;-75
2022/12/05 07:59:26;;;;;;;66.68;27.25;;;3.20;99.90;;;;;;7613803;19;20065;-75
2022/12/05 08:01:58;;;;;;;57.30;23.80;;;3.10;99.90;;;;;;7604302;19;20025;-75
2022/12/05 08:04:30;;;;;;;59.10;24.17;;;3.00;99.90;;;;;;7612298;19;20049;-75
2022/12/05 08:07:02;;;;;;;62.08;25.58;;;3.10;99.90;;;;;;7610043;19;20022;-75
2022/12/05 08:09:34;;;;;;;55.85;24.35;;;3.20;99.90;;;;;;7608732;19;20014;-77
2022/12/05 08:12:06;;;;;;;50.20;23.77;;;3.20;99.90;;;;;;7608326;19;20014;-76
2022/12/05 08:14:39;;;;;;;56.08;25.02;;;3.20;99.90;;;;;;7609198;19;21334;-76
2022/12/05 08:17:11;;;;;;;49.58;22.70;;;3.30;99.90;;;;;;7611764;19;20521;-76
2022/12/05 08:19:43;;;;;;;53.67;23.52;;;3.30;99.90;;;;;;7608869;19;20018;-75
2022/12/05 08:22:15;;;;;;;59.03;25.85;;;4.00;99.90;;;;;;7611503;19;20523;-75
2022/12/05 08:24:51;;;;;;;56.50;25.00;;;3.40;99.90;;;;;;7601098;19;20114;-75
2022/12/05 08:27:27;;;;;;;49.30;24.45;;;3.50;99.90;;;;;;7609788;19;20030;-76
2022/12/05 08:29:59;;;;;;;56.30;24.52;;;3.60;99.90;;;;;;7609649;19;20025;-76
2022/12/05 08:32:32;;;;;;;50.67;24.38;;;3.60;99.90;;;;;;7611160;19;20023;-75
2022/12/05 08:35:04;;;;;;;46.03;20.42;;;3.60;99.90;;;;;;7611514;19;20053;-76
2022/12/05 08:37:36;;;;;;;52.17;21.50;;;3.60;99.90;;;;;;7604078;19;20018;-75
2022/12/05 08:40:09;;;;;;;50.63;22.45;;;3.60;99.90;;;;;;7608256;19;20015;-76
2022/12/05 08:42:41;;;;;;;51.63;21.43;;;3.60;99.90;;;;;;7606152;19;20021;-75
2022/12/05 08:45:14;;;;;;;56.03;24.00;;;3.60;99.90;;;;;;7608769;19;20484;-75
2022/12/05 08:47:45;;;;;;;50.03;22.58;;;3.60;99.90;;;;;;7609635;19;20025;-75
2022/12/05 08:50:18;;;;;;;61.03;26.45;;;3.60;99.90;;;;;;7600553;19;20742;-77
2022/12/05 08:52:51;;;;;;;58.25;26.15;;;3.60;99.90;;;;;;7600459;19;20026;-76
2022/12/05 08:55:23;;;;;;;65.03;29.33;;;3.50;99.90;;;;;;7600680;19;21170;-76
2022/12/05 08:57:55;;;;;;;61.88;26.77;;;3.50;99.90;;;;;;7600032;19;20537;-77
2022/12/05 09:00:27;;;;;;;59.08;27.83;;;3.60;99.90;;;;;;7597584;19;20090;-77
2022/12/05 09:02:59;;;;;;;65.28;27.23;;;3.60;99.90;;;;;;7608619;19;20081;-77
2022/12/05 09:05:32;;;;;;;51.00;24.00;;;3.60;99.90;;;;;;7605187;19;20060;-77
2022/12/05 09:08:04;;;;;;;48.97;22.08;;;3.60;99.90;;;;;;7597262;19;20025;-75
2022/12/05 09:10:37;;;;;;;50.60;21.42;;;3.50;99.90;;;;;;7593588;19;20082;-75
2022/12/05 14:00:50;;;;;;;14.48;7.47;;;4.20;99.90;;;;;;7622065;19;21075;-70
2022/12/05 14:03:32;;;;;;;14.70;7.20;;;4.20;99.90;;;;;;7611441;19;20578;-70
2022/12/05 14:06:06;;;;;;;12.32;7.22;;;4.20;99.90;;;;;;7603452;19;20016;-71
2022/12/05 14:08:38;;;;;;;13.20;6.85;;;4.20;99.90;;;;;;7631725;19;20424;-71
2022/12/05 14:11:10;;;;;;;11.20;6.55;;;4.20;99.90;;;;;;7634381;19;20029;-71
2022/12/05 14:13:44;;;;;;;9.30;4.95;;;4.30;99.90;;;;;;7639520;19;20018;-71
2022/12/05 14:16:19;;;;;;;;;;;4.40;99.90;;;;;;7631093;19;20109;-71
2022/12/05 14:19:10;;;;;;;9.80;5.82;;;4.40;99.90;;;;;;7628284;19;20324;-71
2022/12/05 14:21:57;;;;;;;9.43;6.00;;;4.40;99.90;;;;;;7636224;19;20066;-71
2022/12/05 14:24:54;;;;;;;10.02;6.30;;;4.50;99.90;;;;;;7642442;19;20018;-71
2022/12/05 14:28:05;;;;;;;11.77;7.00;;;4.60;99.90;;;;;;7623989;19;20353;-72
2022/12/05 14:31:04;;;;;;;12.10;7.65;;;4.50;99.90;;;;;;7641104;19;20469;-72
2022/12/05 14:33:37;;;;;;;16.70;7.32;;;4.60;99.90;;;;;;7608675;19;20037;-71
2022/12/05 14:36:17;;;;;;;11.57;7.05;;;4.50;99.90;;;;;;7600181;19;20010;-71
2022/12/05 14:38:50;;;;;;;12.43;7.68;;;4.50;99.90;;;;;;7613645;19;20018;-70
2022/12/05 14:41:30;;;;;;;13.73;6.95;;;4.50;99.90;;;;;;7624073;19;20010;-71
2022/12/05 14:44:03;;;;;;;10.85;6.75;;;4.60;99.90;;;;;;7617802;19;20028;-71
2022/12/05 14:46:44;;;;;;;12.45;7.22;;;4.60;99.90;;;;;;7605963;19;20030;-71
2022/12/05 14:49:56;;;;;;;15.40;9.90;;;4.60;99.90;;;;;;7612439;19;20025;-70
2022/12/05 14:52:30;;;;;;;12.95;7.70;;;4.50;99.90;;;;;;7611068;19;20052;-71
2022/12/05 14:55:11;;;;;;;11.93;7.13;;;4.50;99.90;;;;;;7625958;19;21003;-70
2022/12/05 14:57:48;;;;;;;11.50;7.38;;;4.40;99.90;;;;;;7598038;19;20903;-71
2022/12/05 15:00:22;;;;;;;12.27;7.65;;;4.40;99.90;;;;;;7624790;19;20048;-71
2022/12/05 15:02:56;;;;;;;12.90;7.72;;;4.40;99.90;;;;;;7624844;19;20006;-71
2022/12/05 15:05:33;;;;;;;13.65;8.38;;;4.40;99.90;;;;;;7633099;19;20018;-70
2022/12/05 15:08:05;;;;;;;13.02;8.43;;;4.40;99.90;;;;;;7633507;19;20014;-72
2022/12/05 15:10:38;;;;;;;16.90;10.50;;;4.30;99.90;;;;;;7625711;19;20028;-71
2022/12/05 15:13:20;;;;;;;15.75;10.02;;;4.40;99.90;;;;;;7606054;19;20018;-71
2022/12/05 15:16:12;;;;;;;18.45;10.00;;;4.40;99.90;;;;;;7598565;19;20054;-70
2022/12/05 15:18:50;;;;;;;14.40;9.57;;;4.40;99.90;;;;;;7595959;19;20060;-70
2022/12/05 15:21:25;;;;;;;13.93;9.38;;;4.30;99.90;;;;;;7592347;19;21357;-70
2022/12/05 15:24:03;;;;;;;18.55;10.82;;;4.30;99.90;;;;;;7584072;19;20021;-69
2022/12/05 15:26:47;;;;;;;16.38;10.60;;;4.30;99.90;;;;;;7599212;19;20021;-70
2022/12/05 15:29:23;;;;;;;15.57;10.00;;;4.30;99.90;;;;;;7580412;19;20035;-71
2022/12/05 15:32:06;;;;;;;15.75;9.10;;;4.30;99.90;;;;;;7586491;19;20082;-71
2022/12/05 15:34:44;;;;;;;16.67;9.15;;;4.30;99.90;;;;;;7583169;19;20835;-71
2022/12/05 15:37:33;;;;;;;15.35;9.65;;;4.30;99.90;;;;;;7582029;19;20025;-73
2022/12/05 15:40:13;;;;;;;18.35;10.10;;;4.30;99.90;;;;;;7574686;19;20468;-73
2022/12/05 15:42:50;;;;;;;18.02;9.77;;;4.30;99.90;;;;;;7573253;19;20026;-73
2022/12/05 15:45:26;;;;;;;17.25;10.50;;;4.20;99.90;;;;;;7593290;19;20476;-73
2022/12/05 15:48:04;;;;;;;19.85;10.23;;;4.30;99.90;;;;;;7596841;19;20029;-72
2022/12/05 15:50:46;;;;;;;13.93;8.63;;;4.30;99.90;;;;;;7603754;19;20486;-73
2022/12/05 15:53:39;;;;;;;11.80;8.02;;;4.30;99.90;;;;;;7596792;19;20014;-73
2022/12/05 15:56:21;;;;;;;15.13;8.00;;;4.30;99.90;;;;;;7603292;19;20011;-70
2022/12/05 15:59:32;;;;;;;14.95;8.73;;;4.20;99.90;;;;;;7564564;19;20018;-72
2022/12/05 16:02:15;;;;;;;13.50;8.15;;;4.30;99.90;;;;;;7583275;19;20501;-73
2022/12/05 16:04:51;;;;;;;;;;;4.20;99.90;;;;;;7591422;19;20025;-72
2022/12/05 16:07:28;;;;;;;11.52;7.22;;;4.30;99.90;;;;;;7580245;19;21055;-72
2022/12/05 16:10:01;;;;;;;13.73;7.88;;;4.20;99.90;;;;;;7586757;19;20026;-72
2022/12/05 16:12:39;;;;;;;12.52;7.88;;;4.20;99.90;;;;;;7579303;19;20533;-73
2022/12/05 16:15:21;;;;;;;14.20;7.40;;;4.20;99.90;;;;;;7573908;19;20006;-73
2022/12/05 16:17:59;;;;;;;10.52;6.55;;;4.20;99.90;;;;;;7580093;19;20074;-72
2022/12/05 16:20:35;;;;;;;11.43;6.38;;;4.10;99.90;;;;;;7582917;19;20891;-72
2022/12/05 16:23:28;;;;;;;10.52;7.38;;;4.20;99.90;;;;;;7581941;19;20052;-75
2022/12/05 16:26:23;;;;;;;10.13;6.77;;;4.10;99.90;;;;;;7587522;19;20476;-75
2022/12/05 16:29:00;;;;;;;11.00;6.85;;;4.20;99.90;;;;;;7585634;19;20014;-72
2022/12/05 16:31:33;;;;;;;9.88;6.13;;;4.20;99.90;;;;;;7594584;19;20549;-71
2022/12/05 16:34:13;;;;;;;13.48;7.45;;;4.20;99.90;;;;;;7587982;19;20257;-73
2022/12/05 16:36:48;;;;;;;17.80;9.35;;;4.20;99.90;;;;;;7599802;19;20018;-72
2022/12/05 16:39:21;;;;;;;26.52;12.05;;;4.20;99.90;;;;;;7564978;19;20011;-73
2022/12/05 16:41:54;;;;;;;17.25;11.43;;;4.10;99.90;;;;;;7579293;19;20014;-72
2022/12/05 16:44:30;;;;;;;24.58;10.65;;;4.10;99.90;;;;;;7587887;19;22446;-72
2022/12/05 16:47:02;;;;;;;25.35;11.25;;;4.10;99.90;;;;;;7583600;19;20474;-72
2022/12/05 16:49:35;;;;;;;19.42;9.60;;;4.10;99.90;;;;;;7534330;19;20027;-72
2022/12/05 16:52:15;;;;;;;45.90;18.60;;;4.10;99.90;;;;;;7599046;19;20018;-72
2022/12/05 16:54:49;;;;;;;15.45;7.93;;;4.10;99.90;;;;;;7589712;19;20022;-72
2022/12/05 16:57:21;;;;;;;23.53;10.20;;;4.10;99.90;;;;;;7585671;19;20057;-71
2022/12/05 16:59:53;;;;;;;15.05;8.80;;;4.10;99.90;;;;;;7586304;19;20375;-72
2022/12/05 17:02:25;;;;;;;11.32;5.78;;;4.00;99.90;;;;;;7572710;19;20978;-71
2022/12/05 17:05:02;;;;;;;11.35;7.10;;;4.00;99.90;;;;;;7596618;19;20025;-71
2022/12/05 17:07:34;;;;;;;9.15;6.80;;;3.90;99.90;;;;;;7600901;19;20015;-71
2022/12/05 17:10:07;;;;;;;26.13;13.55;;;3.90;99.90;;;;;;7581435;19;20022;-72
2022/12/05 17:12:39;;;;;;;10.67;7.50;;;3.80;99.90;;;;;;7574286;19;20318;-71
2022/12/05 17:15:19;;;;;;;14.40;10.05;;;3.80;99.90;;;;;;7561413;19;20010;-71
2022/12/05 17:17:51;;;;;;;;;;;3.80;99.90;;;;;;7575434;19;20434;-71
2022/12/05 17:20:24;;;;;;;4.75;3.17;;;3.80;99.90;;;;;;7573340;19;19918;-70
2022/12/05 17:22:56;;;;;;;12.35;7.30;;;3.80;99.90;;;;;;7583539;19;20014;-69
2022/12/05 17:25:35;;;;;;;6.90;4.55;;;3.60;99.90;;;;;;7579705;19;20025;-71
2022/12/05 17:28:07;;;;;;;10.35;6.00;;;3.70;99.90;;;;;;6515762;19;10000630;-70
2022/12/05 17:30:40;;;;;;;10.33;6.33;;;3.50;99.90;;;;;;7553730;19;20655;-70
2022/12/05 17:33:14;;;;;;;11.70;6.28;;;3.50;99.90;;;;;;7565590;19;20068;-72
2022/12/05 17:35:46;;;;;;;12.48;6.55;;;3.50;99.90;;;;;;7552644;19;23851;-70
2022/12/05 17:38:18;;;;;;;13.18;8.25;;;3.40;99.90;;;;;;7558145;19;20101;-71
2022/12/05 17:40:51;;;;;;;15.35;8.98;;;3.40;99.90;;;;;;7563492;19;20070;-71
2022/12/05 17:43:23;;;;;;;15.48;8.02;;;3.40;99.90;;;;;;7556071;19;20053;-71
2022/12/05 17:46:00;;;;;;;16.67;6.80;;;3.40;99.90;;;;;;7548993;19;20021;-70
2022/12/05 17:48:32;;;;;;;11.73;5.57;;;3.40;99.90;;;;;;7526007;19;20505;-70
2022/12/05 17:51:10;;;;;;;12.07;7.15;;;3.50;99.90;;;;;;7528294;19;20350;-70
2022/12/05 17:53:44;;;;;;;10.32;6.25;;;3.40;99.90;;;;;;7539534;19;20018;-73
2022/12/05 17:56:16;;;;;;;12.98;5.93;;;3.30;99.90;;;;;;7519572;19;20013;-69
2022/12/05 17:58:49;;;;;;;10.98;6.82;;;3.40;99.90;;;;;;7570270;19;20021;-71
2022/12/05 18:01:21;;;;;;;14.02;7.78;;;3.20;99.90;;;;;;7569468;19;20015;-69
2022/12/05 18:03:53;;;;;;;15.20;9.05;;;3.30;99.90;;;;;;7575568;19;20098;-69
2022/12/05 18:06:27;;;;;;;14.75;8.73;;;3.20;99.90;;;;;;7543252;19;20519;-69
2022/12/05 18:09:00;;;;;;;14.23;8.48;;;3.10;99.90;;;;;;7554618;19;20051;-72
2022/12/05 18:11:32;;;;;;;14.98;8.48;;;3.10;99.90;;;;;;7552199;19;20010;-70
2022/12/05 18:14:04;;;;;;;25.45;12.68;;;3.00;99.90;;;;;;7541734;19;20056;-69
2022/12/05 18:16:36;;;;;;;31.98;15.82;;;2.90;99.90;;;;;;7533183;19;20552;-70
2022/12/05 18:19:09;;;;;;;20.45;10.75;;;2.90;99.90;;;;;;7531190;19;20365;-69
2022/12/05 18:21:41;;;;;;;16.48;9.75;;;2.90;99.90;;;;;;7529799;19;20342;-70
2022/12/05 18:24:13;;;;;;;12.98;7.53;;;2.90;99.90;;;;;;7498683;19;20011;-71
2022/12/05 18:26:45;;;;;;;15.38;7.45;;;3.00;99.90;;;;;;7521088;19;20062;-70
2022/12/05 18:29:18;;;;;;;15.70;7.05;;;2.90;99.90;;;;;;7547647;19;20782;-71
2022/12/05 18:31:50;;;;;;;14.10;7.88;;;2.90;99.90;;;;;;7545644;19;20534;-72
2022/12/05 18:34:22;;;;;;;12.43;7.40;;;2.90;99.90;;;;;;7547607;19;20103;-71
2022/12/05 18:36:54;;;;;;;12.57;7.57;;;2.80;99.90;;;;;;7524712;19;21349;-70
2022/12/05 18:39:27;;;;;;;12.68;6.82;;;2.80;99.90;;;;;;7519246;19;20898;-73
2022/12/05 18:41:59;;;;;;;14.20;8.57;;;2.90;99.90;;;;;;7556940;19;20588;-77
2022/12/05 18:44:33;;;;;;;16.98;10.52;;;2.90;99.90;;;;;;7532099;19;20564;-70
2022/12/05 18:47:05;;;;;;;22.70;12.65;;;2.80;99.90;;;;;;7520053;19;20136;-71
2022/12/05 18:49:37;;;;;;;22.17;12.48;;;2.80;99.90;;;;;;7575397;19;20045;-73
2022/12/05 18:52:09;;;;;;;22.90;13.30;;;2.70;99.90;;;;;;7555886;19;20014;-75
2022/12/05 18:54:41;;;;;;;24.45;14.77;;;2.70;99.90;;;;;;7584389;19;20014;-74
2022/12/05 18:57:14;;;;;;;23.23;14.35;;;2.70;99.90;;;;;;7584980;19;20014;-74
2022/12/05 18:59:50;;;;;;;31.02;17.75;;;2.60;99.90;;;;;;7584660;19;20960;-75
2022/12/05 19:02:23;;;;;;;22.25;14.05;;;2.60;99.90;;;;;;7564439;19;20934;-70
2022/12/05 19:04:56;;;;;;;19.65;12.88;;;2.60;99.90;;;;;;7578006;19;20097;-70
2022/12/05 19:07:28;;;;;;;20.33;11.73;;;2.70;99.90;;;;;;7570245;19;20035;-71
2022/12/05 19:10:01;;;;;;;20.52;12.90;;;2.70;99.90;;;;;;7565000;19;20048;-72
2022/12/05 19:12:34;;;;;;;17.90;10.05;;;2.80;99.90;;;;;;7573675;19;20030;-71
2022/12/05 19:15:06;;;;;;;14.98;8.25;;;2.70;99.90;;;;;;7563379;19;20019;-74
2022/12/05 19:17:38;;;;;;;17.00;10.07;;;2.80;99.90;;;;;;7559876;19;20526;-69
2022/12/05 19:20:11;;;;;;;14.75;8.75;;;2.80;99.90;;;;;;7563360;19;20007;-70
2022/12/05 19:22:43;;;;;;;13.55;7.10;;;2.80;99.90;;;;;;7563306;19;20015;-70
2022/12/05 19:25:15;;;;;;;12.18;7.18;;;2.80;99.90;;;;;;7557003;19;20654;-72
2022/12/05 19:27:47;;;;;;;18.85;8.63;;;2.80;99.90;;;;;;7587326;19;20023;-72
2022/12/05 19:30:20;;;;;;;13.23;6.78;;;2.80;99.90;;;;;;7572115;19;20086;-71
2022/12/05 19:32:52;;;;;;;14.52;7.70;;;2.80;99.90;;;;;;7562498;19;20053;-71
2022/12/05 19:35:24;;;;;;;14.65;7.60;;;2.80;99.90;;;;;;7566124;19;20018;-71
2022/12/05 19:37:56;;;;;;;11.48;5.70;;;2.80;99.90;;;;;;7567871;19;20596;-71
2022/12/05 19:40:28;;;;;;;13.50;6.70;;;2.80;99.90;;;;;;7573081;19;20022;-70
2022/12/05 19:43:00;;;;;;;16.67;9.02;;;2.90;99.90;;;;;;7565818;19;20863;-70
2022/12/05 19:45:32;;;;;;;14.88;8.35;;;2.80;99.90;;;;;;7539557;19;20418;-72
2022/12/05 19:48:04;;;;;;;18.63;9.30;;;2.80;99.90;;;;;;7537623;19;20468;-69
2022/12/05 19:50:36;;;;;;;16.80;9.70;;;2.80;99.90;;;;;;7548366;19;20018;-70
2022/12/05 19:53:11;;;;;;;14.15;6.88;;;2.90;99.90;;;;;;7565329;19;20018;-72
2022/12/05 19:55:43;;;;;;;20.48;9.23;;;2.80;99.90;;;;;;7571315;19;20021;-72
2022/12/05 19:58:15;;;;;;;11.70;7.13;;;2.80;99.90;;;;;;7551977;19;20037;-72
2022/12/05 20:00:51;;;;;;;14.30;8.07;;;2.70;99.90;;;;;;7545381;19;21123;-72
2022/12/05 20:03:23;;;;;;;11.98;6.93;;;2.70;99.90;;;;;;7539253;19;21738;-71
2022/12/05 20:05:57;;;;;;;14.50;8.40;;;2.80;99.90;;;;;;7538753;19;20592;-71
2022/12/05 20:08:31;;;;;;;14.65;8.68;;;2.80;99.90;;;;;;7530119;19;20604;-70
2022/12/05 20:11:11;;;;;;;36.88;10.80;;;2.80;99.90;;;;;;7538894;19;20108;-72
2022/12/05 20:13:44;;;;;;;89.30;26.58;;;2.80;99.90;;;;;;7530390;19;20396;-70
2022/12/05 20:16:20;;;;;;;44.72;17.45;;;2.80;99.90;;;;;;7549111;19;20026;-70
2022/12/05 20:18:57;;;;;;;27.67;13.63;;;2.80;99.90;;;;;;7555144;19;20015;-71
2022/12/05 20:21:33;;;;;;;20.55;10.70;;;2.80;99.90;;;;;;7584466;19;20771;-71
2022/12/05 20:24:06;;;;;;;20.55;10.10;;;2.80;99.90;;;;;;7545442;19;20028;-71
2022/12/05 20:26:41;;;;;;;28.85;14.13;;;2.80;99.90;;;;;;7557339;19;20695;-71
2022/12/05 20:29:13;;;;;;;21.60;11.77;;;2.90;99.90;;;;;;7551947;19;20029;-70
2022/12/05 20:31:45;;;;;;;19.35;11.38;;;2.80;99.90;;;;;;7564684;19;20696;-72
2022/12/05 20:34:17;;;;;;;16.30;10.20;;;2.90;99.90;;;;;;7489572;19;20018;-70
2022/12/05 20:36:49;;;;;;;17.75;10.48;;;2.90;99.90;;;;;;7545759;19;20490;-70
2022/12/05 20:39:23;;;;;;;21.45;10.70;;;2.90;99.90;;;;;;7566141;19;20064;-69
2022/12/05 20:41:56;;;;;;;22.17;9.43;;;2.90;99.90;;;;;;7590198;19;20046;-70
2022/12/05 20:44:28;;;;;;;20.50;11.10;;;3.00;99.90;;;;;;7582031;19;20494;-70
2022/12/05 20:47:00;;;;;;;26.52;11.98;;;3.00;99.90;;;;;;7565871;19;20290;-70
2022/12/05 20:49:33;;;;;;;19.58;10.30;;;2.90;99.90;;;;;;7583531;19;20616;-70
2022/12/05 20:52:05;;;;;;;23.80;11.38;;;2.90;99.90;;;;;;7581569;19;20875;-70
